createdAt,value
2018-07-13T00:03:05.605Z,81.10
2018-07-13T00:05:35.686Z,80.90
2018-07-13T00:08:04.213Z,81.00
2018-07-13T00:10:32.815Z,81.30
2018-07-13T00:13:02.354Z,81.80
2018-07-13T00:15:30.906Z,82.00
2018-07-13T00:17:59.436Z,82.10
2018-07-13T00:20:40.600Z,82.00
2018-07-13T00:23:09.163Z,82.30
2018-07-13T00:25:37.685Z,82.60
2018-07-13T00:28:06.286Z,82.50
2018-07-13T00:30:34.910Z,82.40
2018-07-13T00:33:03.471Z,82.30
2018-07-13T00:35:33.663Z,83.20
2018-07-13T00:38:02.237Z,82.80
2018-07-13T00:40:30.796Z,83.00
2018-07-13T00:45:27.554Z,83.20
2018-07-13T00:47:56.104Z,83.60
2018-07-13T00:50:24.769Z,83.30
2018-07-13T00:52:53.770Z,83.60
2018-07-13T00:55:22.343Z,83.70
2018-07-13T00:57:50.874Z,84.30
2018-07-13T01:00:30.538Z,84.40
2018-07-13T01:02:59.476Z,84.30
2018-07-13T01:05:28.106Z,84.50
2018-07-13T01:07:57.238Z,84.90
2018-07-13T01:10:39.271Z,85.30
2018-07-13T01:13:07.826Z,85.40
2018-07-13T01:15:36.486Z,85.40
2018-07-13T01:18:05.165Z,85.70
2018-07-13T01:20:33.749Z,85.90
2018-07-13T01:23:02.318Z,86.00
2018-07-13T01:25:30.847Z,86.20
2018-07-13T01:27:59.369Z,86.60
2018-07-13T01:30:27.966Z,87.20
2018-07-13T01:32:56.525Z,87.50
2018-07-13T01:35:25.231Z,87.50
2018-07-13T01:37:53.766Z,87.50
2018-07-13T01:40:23.591Z,87.30
2018-07-13T01:42:52.117Z,87.20
2018-07-13T01:45:20.648Z,87.20
2018-07-13T01:47:49.162Z,87.40
2018-07-13T01:50:17.795Z,87.40
2018-07-13T01:52:46.345Z,87.30
2018-07-13T01:55:15.455Z,86.90
2018-07-13T01:57:44.007Z,86.70
2018-07-13T02:00:12.546Z,86.70
2018-07-13T02:02:41.131Z,86.80
2018-07-13T02:05:09.690Z,87.00
2018-07-13T02:07:38.225Z,87.40
2018-07-13T02:10:06.737Z,87.50
2018-07-13T02:12:35.295Z,87.90
2018-07-13T02:15:03.912Z,87.90
2018-07-13T02:17:32.482Z,87.90
2018-07-13T02:20:01.024Z,87.90
2018-07-13T02:22:29.577Z,87.80
2018-07-13T02:24:58.133Z,87.90
2018-07-13T02:27:26.702Z,88.50
2018-07-13T02:29:55.455Z,88.50
2018-07-13T02:32:24.021Z,87.70
2018-07-13T02:34:52.574Z,88.00
2018-07-13T02:37:22.015Z,88.50
2018-07-13T02:39:50.630Z,88.80
2018-07-13T02:42:19.162Z,89.00
2018-07-13T02:44:47.750Z,89.70
2018-07-13T02:47:16.266Z,89.80
2018-07-13T02:49:44.994Z,89.70
2018-07-13T02:52:13.591Z,89.80
2018-07-13T02:54:43.075Z,90.00
2018-07-13T02:57:11.667Z,90.10
2018-07-13T02:59:40.223Z,90.20
2018-07-13T03:02:08.783Z,90.20
2018-07-13T03:04:37.319Z,90.40
2018-07-13T03:09:34.055Z,90.60
2018-07-13T03:12:02.607Z,90.60
2018-07-13T03:14:31.162Z,90.70
2018-07-13T03:16:59.679Z,90.70
2018-07-13T03:19:28.300Z,90.70
2018-07-13T03:21:56.866Z,90.60
2018-07-13T03:24:25.422Z,90.20
2018-07-13T03:26:53.996Z,90.20
2018-07-13T03:29:22.539Z,90.50
2018-07-13T03:31:51.072Z,90.60
2018-07-13T03:34:19.600Z,90.60
2018-07-13T03:36:48.127Z,90.50
2018-07-13T03:39:16.997Z,90.50
2018-07-13T03:41:45.553Z,90.40
2018-07-13T03:44:14.131Z,90.50
2018-07-13T03:46:42.641Z,90.50
2018-07-13T03:49:11.305Z,90.50
2018-07-13T03:51:39.837Z,90.30
2018-07-13T03:54:08.345Z,90.20
2018-07-13T03:56:37.153Z,90.20
2018-07-13T03:59:05.793Z,90.20
2018-07-13T04:01:34.455Z,90.40
2018-07-13T04:04:03.269Z,90.30
2018-07-13T04:06:31.862Z,90.30
2018-07-13T04:09:00.321Z,90.40
2018-07-13T04:11:28.881Z,90.40
2018-07-13T04:13:57.516Z,90.40
2018-07-13T04:16:26.052Z,90.40
2018-07-13T04:18:55.590Z,90.40
2018-07-13T04:21:25.781Z,90.50
2018-07-13T04:23:54.375Z,90.40
2018-07-13T04:26:23.049Z,90.50
2018-07-13T04:28:52.401Z,90.20
2018-07-13T04:31:21.038Z,90.00
2018-07-13T04:33:49.624Z,89.80
2018-07-13T04:36:18.219Z,88.80
2018-07-13T04:38:47.757Z,88.10
2018-07-13T04:41:16.339Z,87.30
2018-07-13T04:46:19.765Z,84.30
2018-07-13T04:48:48.390Z,82.50
2018-07-13T04:51:17.044Z,80.40
2018-07-13T04:53:45.861Z,79.80
2018-07-13T04:56:14.522Z,80.10
2018-07-13T04:58:43.148Z,79.40
2018-07-13T05:01:12.406Z,78.00
2018-07-13T05:03:41.079Z,76.20
2018-07-13T05:06:09.925Z,73.10
2018-07-13T05:08:38.542Z,71.10
2018-07-13T05:11:08.282Z,68.80
2018-07-13T05:13:36.931Z,67.60
2018-07-13T05:16:05.692Z,66.20
2018-07-13T05:18:36.302Z,64.20
2018-07-13T05:21:04.902Z,62.50
2018-07-13T05:23:33.779Z,60.80
2018-07-13T05:26:02.404Z,59.50
2018-07-13T05:28:31.057Z,59.10
2018-07-13T05:30:59.732Z,60.30
2018-07-13T05:33:28.309Z,59.60
2018-07-13T05:35:56.925Z,58.70
2018-07-13T05:38:25.611Z,58.10
2018-07-13T05:40:54.181Z,56.70
2018-07-13T05:43:22.776Z,55.30
2018-07-13T05:45:51.409Z,55.70
2018-07-13T05:48:20.038Z,56.00
2018-07-13T05:50:48.644Z,55.40
2018-07-13T05:53:17.277Z,55.90
2018-07-13T05:55:45.962Z,55.80
2018-07-13T05:58:14.559Z,53.90
2018-07-13T06:00:43.197Z,53.50
2018-07-13T06:03:11.793Z,53.30
2018-07-13T06:05:40.431Z,52.50
2018-07-13T06:08:09.084Z,51.30
2018-07-13T06:10:37.718Z,51.60
2018-07-13T06:13:06.330Z,51.50
2018-07-13T06:15:34.911Z,51.80
2018-07-13T06:18:03.421Z,51.10
2018-07-13T06:20:32.037Z,52.70
2018-07-13T06:23:00.562Z,53.10
2018-07-13T06:25:29.170Z,53.20
2018-07-13T06:27:57.742Z,52.50
2018-07-13T06:30:26.369Z,50.10
2018-07-13T06:32:56.349Z,50.60
2018-07-13T06:35:28.845Z,50.10
2018-07-13T06:37:58.750Z,49.20
2018-07-13T06:42:55.609Z,47.30
2018-07-13T06:45:24.245Z,48.10
2018-07-13T06:47:52.847Z,48.80
2018-07-13T06:50:21.453Z,48.20
2018-07-13T06:52:50.070Z,47.40
2018-07-13T06:55:19.090Z,47.10
2018-07-13T06:57:59.156Z,46.40
2018-07-13T07:01:12.568Z,46.10
2018-07-13T07:04:49.331Z,48.30
2018-07-13T07:07:19.523Z,47.00
2018-07-13T07:09:52.109Z,46.00
2018-07-13T07:12:58.846Z,44.60
2018-07-13T07:15:27.407Z,44.40
2018-07-13T07:17:56.007Z,43.00
2018-07-13T07:20:24.695Z,42.70
2018-07-13T07:22:53.330Z,41.60
2018-07-13T07:25:22.258Z,40.90
2018-07-13T07:27:50.794Z,40.80
2018-07-13T07:30:19.383Z,38.50
2018-07-13T07:32:48.390Z,37.30
2018-07-13T07:35:16.931Z,37.90
2018-07-13T07:37:45.518Z,34.50
2018-07-13T07:40:14.128Z,33.60
2018-07-13T07:42:42.724Z,33.60
2018-07-13T07:45:11.301Z,34.10
2018-07-13T07:47:39.919Z,32.40
2018-07-13T07:50:08.641Z,33.80
2018-07-13T07:52:37.193Z,34.70
2018-07-13T07:55:05.806Z,33.70
2018-07-13T07:57:34.416Z,34.20
2018-07-13T08:00:03.024Z,36.20
2018-07-13T08:02:32.069Z,34.70
2018-07-13T08:05:00.589Z,34.40
2018-07-13T08:07:29.254Z,33.90
2018-07-13T08:09:57.793Z,34.70
2018-07-13T08:12:26.398Z,34.30
2018-07-13T08:14:55.256Z,34.30
2018-07-13T08:17:24.087Z,32.60
2018-07-13T08:19:52.839Z,32.00
2018-07-13T08:22:26.127Z,30.20
2018-07-13T08:24:56.046Z,32.60
2018-07-13T08:27:34.073Z,31.90
2018-07-13T08:30:03.535Z,32.70
2018-07-13T08:32:32.190Z,32.20
2018-07-13T08:35:00.825Z,31.50
2018-07-13T08:37:29.515Z,32.20
2018-07-13T08:39:58.060Z,34.20
2018-07-13T08:42:26.684Z,31.30
2018-07-13T08:44:55.287Z,34.00
2018-07-13T08:47:23.915Z,32.20
2018-07-13T08:49:52.533Z,31.70
2018-07-13T08:52:21.446Z,32.80
2018-07-13T08:54:50.133Z,32.50
2018-07-13T08:57:18.893Z,33.10
2018-07-13T08:59:48.015Z,32.20
2018-07-13T09:02:16.581Z,31.00
2018-07-13T09:04:45.248Z,32.40
2018-07-13T09:07:13.948Z,35.40
2018-07-13T09:09:42.548Z,34.60
2018-07-13T09:12:11.237Z,34.50
2018-07-13T09:14:39.834Z,34.20
2018-07-13T09:17:08.446Z,38.00
2018-07-13T09:19:37.281Z,37.60
2018-07-13T09:22:06.164Z,37.80
2018-07-13T09:24:34.855Z,37.60
2018-07-13T09:27:03.820Z,35.40
2018-07-13T09:29:32.434Z,34.70
2018-07-13T09:32:02.012Z,34.80
2018-07-13T09:34:30.659Z,34.30
2018-07-13T09:36:59.303Z,36.50
2018-07-13T09:39:27.900Z,36.10
2018-07-13T09:41:56.521Z,37.20
2018-07-13T09:44:25.065Z,34.80
2018-07-13T09:46:53.792Z,35.00
2018-07-13T09:49:22.329Z,36.40
2018-07-13T09:51:50.995Z,37.30
2018-07-13T09:54:20.189Z,37.90
2018-07-13T09:56:49.742Z,38.40
2018-07-13T09:59:18.250Z,37.80
2018-07-13T10:01:46.951Z,38.10
2018-07-13T10:04:15.580Z,38.00
2018-07-13T10:06:44.211Z,36.90
2018-07-13T10:09:13.528Z,35.30
2018-07-13T10:11:42.092Z,35.70
2018-07-13T10:14:10.843Z,34.60
2018-07-13T10:16:39.447Z,35.20
2018-07-13T10:19:08.062Z,36.30
2018-07-13T10:21:38.594Z,38.30
2018-07-13T10:24:07.671Z,37.60
2018-07-13T10:26:38.678Z,35.80
2018-07-13T10:29:11.377Z,37.10
2018-07-13T10:31:40.019Z,37.20
2018-07-13T10:34:09.752Z,37.10
2018-07-13T10:36:49.443Z,36.80
2018-07-13T10:39:18.777Z,36.40
2018-07-13T10:41:48.071Z,37.80
2018-07-13T10:44:17.245Z,37.00
2018-07-13T10:46:45.881Z,36.70
2018-07-13T10:49:14.527Z,36.60
2018-07-13T10:51:43.707Z,36.60
2018-07-13T10:54:12.457Z,35.00
2018-07-13T10:56:41.051Z,35.10
2018-07-13T10:59:11.522Z,36.30
2018-07-13T11:01:40.461Z,37.00
2018-07-13T11:04:09.992Z,36.00
2018-07-13T11:06:39.378Z,36.00
2018-07-13T11:09:09.136Z,33.20
2018-07-13T11:11:37.903Z,33.70
2018-07-13T11:14:07.160Z,34.90
2018-07-13T11:16:35.688Z,36.40
2018-07-13T11:19:04.859Z,35.00
2018-07-13T11:21:33.661Z,34.20
2018-07-13T11:24:02.313Z,33.80
2018-07-13T11:26:31.882Z,33.50
2018-07-13T11:29:00.545Z,33.10
2018-07-13T11:31:29.149Z,36.60
2018-07-13T11:33:58.195Z,34.40
2018-07-13T11:36:26.874Z,35.80
2018-07-13T11:38:56.410Z,33.60
2018-07-13T11:41:25.014Z,34.50
2018-07-13T11:43:53.641Z,34.00
2018-07-13T11:46:22.477Z,35.20
2018-07-13T11:48:51.621Z,36.10
2018-07-13T11:51:20.283Z,37.40
2018-07-13T11:53:49.592Z,36.80
2018-07-13T11:56:19.390Z,36.80
2018-07-13T11:58:48.047Z,36.60
2018-07-13T12:01:16.733Z,36.80
2018-07-13T12:03:45.367Z,35.10
2018-07-13T12:06:16.651Z,35.30
2018-07-13T12:08:45.205Z,35.20
2018-07-13T12:11:14.835Z,35.20
2018-07-13T12:13:56.631Z,34.10
2018-07-13T12:16:28.064Z,34.10
2018-07-13T12:18:57.158Z,34.20
2018-07-13T12:21:25.773Z,34.50
2018-07-13T12:23:55.033Z,35.80
2018-07-13T12:26:24.170Z,35.60
2018-07-13T12:28:52.725Z,34.80
2018-07-13T12:31:21.978Z,35.40
2018-07-13T12:33:51.496Z,33.20
2018-07-13T12:36:24.304Z,33.40
2018-07-13T12:38:53.690Z,33.10
2018-07-13T12:41:22.799Z,34.20
2018-07-13T12:43:51.313Z,35.80
2018-07-13T12:46:19.886Z,35.20
2018-07-13T12:48:49.369Z,33.60
2018-07-13T12:51:17.963Z,35.20
2018-07-13T12:53:46.937Z,34.10
2018-07-13T12:56:15.434Z,35.00
2018-07-13T12:58:43.942Z,34.40
2018-07-13T13:01:12.563Z,35.10
2018-07-13T13:03:41.184Z,34.50
2018-07-13T13:06:09.717Z,33.70
2018-07-13T13:08:38.410Z,34.20
2018-07-13T13:13:36.626Z,34.20
2018-07-13T13:16:05.262Z,34.00
2018-07-13T13:18:34.731Z,32.80
2018-07-13T13:21:05.677Z,32.70
2018-07-13T13:23:34.242Z,32.90
2018-07-13T13:26:03.502Z,33.70
2018-07-13T13:28:32.014Z,33.80
2018-07-13T13:31:01.576Z,34.50
2018-07-13T13:33:30.950Z,34.30
2018-07-13T13:35:59.528Z,35.00
2018-07-13T13:38:28.099Z,33.70
2018-07-13T13:40:58.129Z,32.70
2018-07-13T13:43:26.707Z,34.00
2018-07-13T13:45:58.802Z,35.20
2018-07-13T13:48:27.371Z,34.90
2018-07-13T13:50:56.314Z,32.80
2018-07-13T13:53:26.438Z,32.50
2018-07-13T13:55:54.956Z,32.10
2018-07-13T13:58:23.522Z,33.70
2018-07-13T14:00:52.153Z,33.80
2018-07-13T14:03:20.974Z,33.60
2018-07-13T14:05:49.538Z,33.30
2018-07-13T14:08:18.584Z,32.30
2018-07-13T14:10:47.203Z,33.90
2018-07-13T14:13:16.712Z,32.50
2018-07-13T14:15:45.849Z,32.10
2018-07-13T14:18:15.311Z,31.20
2018-07-13T14:20:43.930Z,29.90
2018-07-13T14:23:12.502Z,31.00
2018-07-13T14:25:41.741Z,31.00
2018-07-13T14:28:10.336Z,31.00
2018-07-13T14:30:39.168Z,32.10
2018-07-13T14:33:07.798Z,31.20
2018-07-13T14:35:36.402Z,31.80
2018-07-13T14:38:04.982Z,30.60
2018-07-13T14:40:34.748Z,31.80
2018-07-13T14:43:04.757Z,31.00
2018-07-13T14:45:33.335Z,30.10
2018-07-13T14:48:01.941Z,31.50
2018-07-13T14:50:30.960Z,30.80
2018-07-13T14:53:00.071Z,30.20
2018-07-13T14:55:28.598Z,29.80
2018-07-13T14:57:57.447Z,30.10
2018-07-13T15:00:25.981Z,30.20
2018-07-13T15:02:55.576Z,30.50
2018-07-13T15:05:24.490Z,30.70
2018-07-13T15:07:54.334Z,30.50
2018-07-13T15:10:23.356Z,30.00
2018-07-13T15:12:52.934Z,30.00
2018-07-13T15:15:21.482Z,30.60
2018-07-13T15:17:50.087Z,30.50
2018-07-13T15:20:19.547Z,29.90
2018-07-13T15:22:49.200Z,30.80
2018-07-13T15:25:17.746Z,30.10
2018-07-13T15:27:46.311Z,29.80
2018-07-13T15:30:16.358Z,29.90
2018-07-13T15:32:45.434Z,30.00
2018-07-13T15:35:14.010Z,30.10
2018-07-13T15:37:43.408Z,30.30
2018-07-13T15:40:12.585Z,30.30
2018-07-13T15:42:42.207Z,30.80
2018-07-13T15:45:13.007Z,30.70
2018-07-13T15:48:24.600Z,30.20
2018-07-13T15:50:56.568Z,30.90
2018-07-13T15:53:26.730Z,30.30
2018-07-13T15:55:57.613Z,31.20
2018-07-13T15:58:26.756Z,30.90
2018-07-13T16:00:56.190Z,30.80
2018-07-13T16:03:24.869Z,31.50
2018-07-13T16:08:25.174Z,32.30
2018-07-13T16:10:55.227Z,32.30
2018-07-13T16:15:52.835Z,31.90
2018-07-13T16:18:22.034Z,32.10
2018-07-13T16:20:50.585Z,30.70
2018-07-13T16:23:19.114Z,30.80
2018-07-13T16:25:47.601Z,31.30
2018-07-13T16:28:16.167Z,30.30
2018-07-13T16:30:45.657Z,31.00
2018-07-13T16:33:14.266Z,31.40
2018-07-13T16:35:43.275Z,31.00
2018-07-13T16:38:13.130Z,31.70
2018-07-13T16:40:41.772Z,32.20
2018-07-13T16:43:11.023Z,31.70
2018-07-13T16:45:40.197Z,31.50
2018-07-13T16:48:09.286Z,31.70
2018-07-13T16:50:37.897Z,31.20
2018-07-13T16:53:06.426Z,32.30
2018-07-13T16:55:35.359Z,32.10
2018-07-13T16:58:03.967Z,32.50
2018-07-13T17:00:36.518Z,32.70
2018-07-13T17:03:06.553Z,32.20
2018-07-13T17:05:40.121Z,31.60
2018-07-13T17:08:09.205Z,32.20
2018-07-13T17:10:38.693Z,31.70
2018-07-13T17:13:07.647Z,31.80
2018-07-13T17:15:36.202Z,32.30
2018-07-13T17:18:05.426Z,32.40
2018-07-13T17:23:03.244Z,32.90
2018-07-13T17:25:33.134Z,32.20
2018-07-13T17:28:01.734Z,32.30
2018-07-13T17:30:30.987Z,31.80
2018-07-13T17:32:59.627Z,32.60
2018-07-13T17:35:29.135Z,32.90
2018-07-13T17:37:57.707Z,33.50
2018-07-13T17:40:26.262Z,33.30
2018-07-13T17:42:55.230Z,33.80
2018-07-13T17:45:54.376Z,34.00
2018-07-13T17:48:22.942Z,33.70
2018-07-13T17:50:51.481Z,34.30
2018-07-13T17:53:20.082Z,34.40
2018-07-13T17:55:49.306Z,33.70
2018-07-13T17:58:17.876Z,34.40
2018-07-13T18:00:46.466Z,33.80
2018-07-13T18:03:15.014Z,33.40
2018-07-13T18:05:43.534Z,33.40
2018-07-13T18:08:12.143Z,34.60
2018-07-13T18:10:40.666Z,34.90
2018-07-13T18:13:09.294Z,34.60
2018-07-13T18:15:39.514Z,35.00
2018-07-13T18:18:09.079Z,35.50
2018-07-13T18:20:39.383Z,39.30
2018-07-13T18:23:08.305Z,41.70
2018-07-13T18:25:38.128Z,42.90
2018-07-13T18:28:12.322Z,44.20
2018-07-13T18:30:41.632Z,44.90
2018-07-13T18:33:12.281Z,45.00
2018-07-13T18:35:41.633Z,46.70
2018-07-13T18:38:10.876Z,48.20
2018-07-13T18:40:39.516Z,48.90
2018-07-13T18:43:08.463Z,49.90
2018-07-13T18:48:06.508Z,51.40
2018-07-13T18:50:35.800Z,52.50
2018-07-13T18:53:04.656Z,54.20
2018-07-13T18:55:33.279Z,54.60
2018-07-13T18:58:02.139Z,54.70
2018-07-13T19:00:31.625Z,55.00
2018-07-13T19:03:00.802Z,55.50
2018-07-13T19:05:29.886Z,55.60
2018-07-13T19:07:58.877Z,56.00
2018-07-13T19:10:28.431Z,55.50
2018-07-13T19:12:57.003Z,55.90
2018-07-13T19:15:25.734Z,56.50
2018-07-13T19:17:54.360Z,56.60
2018-07-13T19:20:23.528Z,56.70
2018-07-13T19:22:58.467Z,56.50
2018-07-13T19:25:27.456Z,56.80
2018-07-13T19:27:56.058Z,56.70
2018-07-13T19:30:25.058Z,56.00
2018-07-13T19:32:54.086Z,56.10
2018-07-13T19:35:22.608Z,55.70
2018-07-13T19:37:51.152Z,56.20
2018-07-13T19:40:19.727Z,56.60
2018-07-13T19:42:49.594Z,57.70
2018-07-13T19:45:18.145Z,58.00
2018-07-13T19:47:46.770Z,57.80
2018-07-13T19:50:15.687Z,58.00
2018-07-13T19:52:44.607Z,58.50
2018-07-13T19:55:13.174Z,58.80
2018-07-13T19:57:42.560Z,58.10
2018-07-13T20:00:12.612Z,57.70
2018-07-13T20:02:42.073Z,57.90
2018-07-13T20:05:11.536Z,57.80
2018-07-13T20:07:40.079Z,58.30
2018-07-13T20:10:09.892Z,59.40
2018-07-13T20:12:38.486Z,59.50
2018-07-13T20:15:07.126Z,59.60
2018-07-13T20:17:35.683Z,59.20
2018-07-13T20:20:04.337Z,58.80
2018-07-13T20:22:32.927Z,58.70
2018-07-13T20:25:01.477Z,58.60
2018-07-13T20:27:30.738Z,58.50
2018-07-13T20:29:59.306Z,58.80
2018-07-13T20:32:27.802Z,58.60
2018-07-13T20:34:56.326Z,58.40
2018-07-13T20:37:31.480Z,58.50
2018-07-13T20:40:00.076Z,58.60
2018-07-13T20:42:29.558Z,59.20
2018-07-13T20:44:58.092Z,59.60
2018-07-13T20:47:26.705Z,60.10
2018-07-13T20:49:55.803Z,60.10
2018-07-13T20:52:24.418Z,60.90
2018-07-13T20:54:53.997Z,60.30
2018-07-13T20:57:22.604Z,60.40
2018-07-13T20:59:51.483Z,60.60
2018-07-13T21:02:20.076Z,60.70
2018-07-13T21:04:48.662Z,62.70
2018-07-13T21:07:17.191Z,61.20
2018-07-13T21:09:46.352Z,61.70
2018-07-13T21:12:14.935Z,61.20
2018-07-13T21:14:43.469Z,61.20
2018-07-13T21:17:21.296Z,61.00
2018-07-13T21:19:51.359Z,61.90
2018-07-13T21:22:21.755Z,62.50
2018-07-13T21:24:50.416Z,62.10
2018-07-13T21:27:19.407Z,61.30
2018-07-13T21:29:48.002Z,61.80
2018-07-13T21:32:17.284Z,63.30
2018-07-13T21:34:45.906Z,62.70
2018-07-13T21:37:14.759Z,62.50
2018-07-13T21:39:43.249Z,62.60
2018-07-13T21:42:11.887Z,63.20
2018-07-13T21:44:40.464Z,63.80
2018-07-13T21:47:09.047Z,64.40
2018-07-13T21:49:37.658Z,65.10
2018-07-13T21:52:06.254Z,65.30
2018-07-13T21:54:35.117Z,65.10
2018-07-13T21:57:03.680Z,65.40
2018-07-13T21:59:32.217Z,64.90
2018-07-13T22:02:00.818Z,65.10
2018-07-13T22:04:29.346Z,65.80
2018-07-13T22:06:57.879Z,65.60
2018-07-13T22:09:26.476Z,65.90
2018-07-13T22:11:55.022Z,66.00
2018-07-13T22:14:23.579Z,66.60
2018-07-13T22:16:52.147Z,66.60
2018-07-13T22:19:20.700Z,66.80
2018-07-13T22:21:49.300Z,66.60
2018-07-13T22:24:17.821Z,66.70
2018-07-13T22:26:46.384Z,66.60
2018-07-13T22:29:15.051Z,66.60
2018-07-13T22:31:43.619Z,66.60
2018-07-13T22:34:12.163Z,66.20
2018-07-13T22:36:40.721Z,66.80
2018-07-13T22:39:09.294Z,66.70
2018-07-13T22:41:37.868Z,66.50
2018-07-13T22:44:06.430Z,67.00
2018-07-13T22:46:34.934Z,67.10
2018-07-13T22:49:03.465Z,68.30
2018-07-13T22:51:31.966Z,68.50
2018-07-13T22:54:00.538Z,68.50
2018-07-13T22:56:29.093Z,68.60
2018-07-13T22:58:57.665Z,68.90
2018-07-13T23:01:26.264Z,69.40
2018-07-13T23:03:54.772Z,68.90
2018-07-13T23:06:23.292Z,69.40
2018-07-13T23:08:51.833Z,70.40
2018-07-13T23:11:20.357Z,70.90
2018-07-13T23:13:48.905Z,71.60
2018-07-13T23:16:17.483Z,72.30
2018-07-13T23:18:46.326Z,71.60
2018-07-13T23:21:14.899Z,71.50
2018-07-13T23:23:43.474Z,71.50
2018-07-13T23:26:12.008Z,71.40
2018-07-13T23:28:40.579Z,71.40
2018-07-13T23:31:09.130Z,71.60
2018-07-13T23:33:37.709Z,72.40
2018-07-13T23:36:06.350Z,72.20
2018-07-13T23:38:34.916Z,72.30
2018-07-13T23:41:03.473Z,72.10
2018-07-13T23:43:32.052Z,71.50
2018-07-13T23:46:00.597Z,71.40
2018-07-13T23:48:29.292Z,72.40
2018-07-13T23:50:57.846Z,72.40
2018-07-13T23:53:26.394Z,72.60
2018-07-13T23:55:54.958Z,73.00
